Data for 07/18/2013

Time Sea-Level Adjusted Pressure Absolute Pressure Temperature Relative Humidity Dew Point   
(mb) (inHg) (mb) (inHg) (C) (F) (%) (C) (F)
00:05 1024 30.24 853 25.19 13.9 57 84 11.3 52.4
00:10 1024 30.24 853 25.19 13.7 56.7 85 11.2 52.1
00:15 1024 30.24 853 25.19 13.7 56.7 85 11.2 52.1
00:20 1024 30.24 853 25.19 13.7 56.7 85 11.2 52.2
00:25 1024 30.24 853 25.19 13.8 56.8 83 11 51.8
00:30 1024 30.24 853 25.19 14.1 57.4 82 11.1 52
00:35 1024 30.24 853 25.19 14.2 57.5 82 11.1 52.1
00:40 1024 30.24 853 25.19 14 57.3 83 11.2 52.2
00:45 1024 30.24 853 25.19 13.9 56.9 84 11.2 52.1
00:50 1024 30.24 853 25.19 13.8 56.9 84 11.1 52
00:55 1024 30.24 853 25.19 13.8 56.9 84 11.3 52.3
01:00 1024 30.24 853 25.19 13.8 56.9 85 11.3 52.4
01:05 1024 30.24 853 25.19 13.7 56.7 85 11.2 52.2
01:10 1024 30.24 853 25.19 13.7 56.7 85 11.2 52.2
01:15 1024 30.24 853 25.19 13.9 56.9 83 11.1 52
01:20 1024 30.24 853 25.19 13.8 56.9 83 11.1 52
01:25 1024 30.24 853 25.19 13.7 56.7 83 11 51.8
01:30 1024 30.24 853 25.19 13.7 56.6 84 11 51.7
01:35 1024 30.24 853 25.19 13.7 56.6 83 10.9 51.7
01:40 1024 30.24 853 25.19 13.7 56.6 84 11 51.8
01:45 1024 30.24 853 25.19 13.5 56.3 84 10.9 51.6
01:50 1024 30.24 854 25.22 13.4 56 85 10.9 51.6
01:55 1024 30.24 854 25.22 13.1 55.6 86 10.8 51.4
02:00 1024 30.24 854 25.22 13 55.4 86 10.8 51.4
02:05 1024 30.24 854 25.22 13.1 55.5 85 10.6 51
02:10 1024 30.24 853 25.19 13.3 55.9 84 10.6 51.1
02:15 1024 30.24 853 25.19 13.4 56.1 83 10.6 51.1
02:20 1024 30.24 853 25.19 13.4 56 83 10.6 51
02:25 1024 30.24 853 25.19 13.4 56 83 10.5 50.8
02:30 1024 30.24 853 25.19 13.5 56.2 82 10.5 51
02:35 1024 30.24 853 25.19 13.5 56.2 83 10.6 51.1
02:40 1024 30.24 853 25.19 13.3 55.9 84 10.6 51.1
02:45 1024 30.24 853 25.19 13.3 55.9 83 10.5 50.9
02:50 1024 30.24 853 25.19 13.4 56.1 82 10.5 50.9
02:55 1024 30.24 853 25.19 13.4 56.1 82 10.5 50.9
03:00 1024 30.24 853 25.19 13.4 56.1 83 10.5 50.9
03:05 1024 30.24 853 25.19 13.3 55.9 84 10.7 51.2
03:10 1024 30.24 853 25.19 13.3 56 83 10.5 50.9
03:15 1024 30.24 853 25.19 13.5 56.2 83 10.6 51.1
03:20 1024 30.24 853 25.19 13.3 56 83 10.5 50.8
03:25 1024 30.24 853 25.19 13.1 55.6 83 10.3 50.5
03:30 1024 30.24 853 25.19 13.2 55.7 83 10.4 50.7
03:35 1024 30.24 853 25.19 13 55.4 84 10.3 50.5
03:40 1024 30.24 853 25.19 12.9 55.2 84 10.3 50.5
03:45 1024 30.24 853 25.19 12.9 55.2 85 10.4 50.7
03:50 1024 30.24 853 25.19 12.9 55.1 85 10.4 50.7
03:55 1024 30.24 853 25.19 12.9 55.2 84 10.3 50.6
04:00 1024 30.24 853 25.19 13 55.3 84 10.3 50.5
04:05 1024 30.24 854 25.22 13 55.3 83 10.2 50.4
04:10 1024 30.24 854 25.22 13.1 55.5 82 10.1 50.2
04:15 1024 30.24 854 25.22 13.3 55.9 81 10.1 50.2
04:20 1024 30.24 854 25.22 13.4 56 82 10.3 50.6
04:25 1024 30.24 853 25.19 13.2 55.7 82 10.3 50.5
04:30 1024 30.24 853 25.19 12.9 55.3 83 10.2 50.4
04:35 1024 30.24 854 25.22 12.6 54.7 84 10.1 50.1
04:40 1024 30.24 853 25.19 12.9 55.2 82 10 50
04:45 1024 30.24 853 25.19 13.1 55.7 82 10.2 50.4
04:50 1024 30.24 854 25.22 13 55.4 83 10.3 50.5
04:55 1024 30.24 854 25.22 12.9 55.2 84 10.3 50.5
05:00 1024 30.24 854 25.22 12.8 55.1 84 10.3 50.5
05:05 1024 30.24 853 25.19 12.8 55.1 85 10.4 50.6
05:10 1024 30.24 854 25.22 12.8 55 85 10.3 50.5
05:15 1024 30.24 854 25.22 12.8 55.1 84 10.2 50.4
05:20 1024 30.24 854 25.22 13 55.4 83 10.1 50.3
05:25 1025 30.27 854 25.22 13.1 55.5 82 10.1 50.1
05:30 1025 30.27 854 25.22 13.4 56 80 10 50
05:35 1025 30.27 854 25.22 13.8 56.8 78 10.1 50.1
05:40 1025 30.27 854 25.22 14.3 57.8 76 10.2 50.4
05:45 1025 30.27 854 25.22 14.6 58.2 75 10.3 50.5
05:50 1025 30.27 854 25.22 14.5 58.1 76 10.3 50.6
05:55 1025 30.27 854 25.22 14.4 58 77 10.5 50.9
06:00 1025 30.27 854 25.22 14.6 58.2 75 10.2 50.4
06:05 1025 30.27 854 25.22 14.7 58.4 74 10.2 50.3
06:10 1025 30.27 854 25.22 14.8 58.6 74 10.2 50.4
06:15 1025 30.27 854 25.22 14.7 58.5 74 10.1 50.2
06:20 1025 30.27 854 25.22 15 59 73 10.2 50.3
06:25 1025 30.27 854 25.22 15.2 59.3 73 10.5 50.9
06:30 1025 30.27 854 25.22 15.5 59.8 72 10.5 50.9
06:35 1025 30.27 854 25.22 15.5 59.9 74 11 51.8
06:40 1025 30.27 854 25.22 15.7 60.3 74 11 51.9
06:45 1025 30.27 854 25.22 16.1 61 73 11.4 52.5
06:50 1025 30.27 854 25.22 16.5 61.6 71 11.3 52.4
06:55 1025 30.27 854 25.22 16.5 61.7 70 11.1 52
07:00 1025 30.27 854 25.22 16.6 61.8 70 11.1 52
07:05 1025 30.27 854 25.22 16.6 61.8 71 11.4 52.5
07:10 1025 30.27 854 25.22 17 62.5 69 11.3 52.4
07:15 1025 30.27 854 25.22 17.3 63.1 71 11.9 53.5
07:20 1025 30.27 854 25.22 17.9 64.1 66 11.5 52.7
07:25 1025 30.27 854 25.22 18.4 65.1 62 11.2 52.1
07:30 1025 30.27 854 25.22 18.4 65.1 64 11.6 53
07:35 1025 30.27 854 25.22 18.8 65.9 62 11.5 52.6
07:40 1025 30.27 854 25.22 19.3 66.7 60 11.5 52.7
07:45 1025 30.27 854 25.22 19.9 67.8 61 12.2 53.9
07:50 1025 30.27 854 25.22 20.4 68.7 56 11.5 52.7
07:55 1025 30.27 855 25.25 20.5 68.9 57 11.8 53.2
08:00 1025 30.27 855 25.25 20.8 69.5 56 11.7 53.1
08:05 1025 30.27 855 25.25 21.1 70.1 55 12 53.6
08:10 1025 30.27 855 25.25 20.8 69.4 57 12.2 53.9
08:15 1025 30.27 855 25.25 20.6 69 56 11.6 52.9
08:20 1025 30.27 855 25.25 21.1 69.9 56 12.1 53.9
08:25 1025 30.27 854 25.22 20.9 69.6 58 12.4 54.4
08:30 1025 30.27 854 25.22 20.9 69.5 56 11.8 53.3
08:35 1025 30.27 854 25.22 21.1 70 58 12.7 54.9
08:40 1025 30.27 854 25.22 21 69.7 57 12.4 54.2
08:45 1025 30.27 854 25.22 21 69.7 59 12.8 55
08:50 1025 30.27 854 25.22 20.3 68.5 61 12.7 54.9
08:55 1025 30.27 854 25.22 20.4 68.8 62 12.9 55.3
09:00 1025 30.27 854 25.22 20.9 69.7 57 12.2 53.9
09:05 1025 30.27 854 25.22 21.1 70 58 12.8 55
09:10 1025 30.27 854 25.22 21.4 70.5 55 12.1 53.8
09:15 1025 30.27 854 25.22 21.5 70.7 55 12.3 54.1
09:20 1025 30.27 854 25.22 22.4 72.3 51 12 53.6
09:25 1025 30.27 854 25.22 23 73.3 49 11.7 53.1
09:30 1025 30.27 854 25.22 22.9 73.1 50 12 53.7
09:35 1025 30.27 854 25.22 23.1 73.7 50 12.3 54.1
09:40 1025 30.27 854 25.22 22.9 73.2 52 12.5 54.6
09:45 1025 30.27 854 25.22 23.2 73.8 47 11.5 52.7
09:50 1025 30.27 854 25.22 23.7 74.7 47 12 53.7
09:55 1025 30.27 854 25.22 24.2 75.5 47 12.4 54.2
10:00 1025 30.27 854 25.22 24.6 76.2 46 12.3 54.1
10:05 1025 30.27 854 25.22 24.7 76.4 46 12.4 54.3
10:10 1025 30.27 854 25.22 24.5 76.2 42 11.1 52
10:15 1025 30.27 854 25.22 24.7 76.5 42 11.2 52.1
10:20 1025 30.27 854 25.22 25 76.9 42 11.4 52.5
10:25 1025 30.27 854 25.22 25 77 42 11.5 52.7
10:30 1025 30.27 854 25.22 24.6 76.4 44 11.6 52.9
10:35 1025 30.27 854 25.22 24.1 75.4 41 10.4 50.7
10:40 1025 30.27 854 25.22 24.2 75.6 39 9.7 49.4
10:45 1025 30.27 854 25.22 24.8 76.6 40 10.5 50.9
10:50 1025 30.27 854 25.22 25.6 78 36 9.7 49.5
10:55 1025 30.27 854 25.22 25.2 77.4 40 10.7 51.3
11:00 1025 30.27 854 25.22 25.3 77.5 38 10.1 50.2
11:05 1025 30.27 854 25.22 25.2 77.4 35 8.7 47.7
11:10 1025 30.27 854 25.22 25.7 78.2 34 8.7 47.7
11:15 1025 30.27 854 25.22 25.8 78.4 33 8.6 47.6
11:20 1025 30.27 854 25.22 25.6 78.1 34 8.7 47.6
11:25 1025 30.27 854 25.22 26 78.9 33 8.6 47.5
11:30 1025 30.27 854 25.22 26.5 79.8 32 8.8 47.8
11:35 1025 30.27 854 25.22 25.7 78.3 34 9.1 48.3
11:40 1025 30.27 854 25.22 26.1 79 34 9.2 48.5
11:45 1025 30.27 854 25.22 25.7 78.2 38 10.5 50.8
11:50 1025 30.27 854 25.22 25 76.9 35 8.5 47.3
11:55 1024 30.24 854 25.22 25.8 78.4 32 8 46.4
12:00 1024 30.24 854 25.22 25.8 78.5 32 8 46.4
12:05 1024 30.24 854 25.22 26.6 79.9 31 8.3 46.9
12:10 1024 30.24 854 25.22 26.8 80.3 29 7.7 45.9
12:15 1024 30.24 853 25.19 26.7 80 29 7.6 45.6
12:20 1024 30.24 853 25.19 26.4 79.6 30 7.7 45.8
12:25 1024 30.24 853 25.19 26.5 79.7 30 7.9 46.2
12:30 1024 30.24 853 25.19 26 78.7 29 6.9 44.5
12:35 1024 30.24 853 25.19 26.3 79.3 28 6.7 44.1
12:40 1024 30.24 853 25.19 26.3 79.4 30 7.4 45.3
12:45 1024 30.24 853 25.19 26.4 79.5 30 7.8 46.1
12:50 1024 30.24 853 25.19 26.7 80.1 27 6.4 43.5
12:55 1024 30.24 853 25.19 27.3 81.2 27 6.8 44.3
13:00 1024 30.24 853 25.19 27.6 81.6 25 6 42.7
13:05 1024 30.24 853 25.19 28.1 82.5 25 6.4 43.5
13:10 1024 30.24 853 25.19 28 82.4 25 6.6 43.9
13:15 1024 30.24 853 25.19 27.7 81.9 25 6.3 43.3
13:20 1024 30.24 853 25.19 27.7 81.9 25 6.1 42.9
13:25 1024 30.24 853 25.19 27.8 82 25 6.4 43.5
13:30 1024 30.24 853 25.19 27.9 82.2 25 6.3 43.3
13:35 1024 30.24 853 25.19 28 82.4 24 6.1 42.9
13:40 1024 30.24 853 25.19 28 82.4 25 6.6 43.9
13:45 1024 30.24 853 25.19 28.1 82.6 26 7.1 44.8
13:50 1024 30.24 853 25.19 28.4 83.1 24 6.4 43.5
13:55 1024 30.24 853 25.19 28.8 83.8 25 6.9 44.3
14:00 1024 30.24 853 25.19 28.7 83.6 25 6.8 44.3
14:05 1024 30.24 853 25.19 28.3 82.9 25 6.9 44.4
14:10 1023 30.21 853 25.19 28.5 83.3 26 7.5 45.4
14:15 1023 30.21 853 25.19 28.3 83 25 6.9 44.5
14:20 1023 30.21 853 25.19 28.2 82.7 25 6.6 43.8
14:25 1023 30.21 853 25.19 28.8 83.8 22 5.4 41.8
14:30 1023 30.21 853 25.19 28.9 84.1 23 6.3 43.3
14:35 1023 30.21 853 25.19 28.9 84.1 23 6.2 43.1
14:40 1023 30.21 853 25.19 29 84.2 22 5.6 42
14:45 1023 30.21 852 25.16 29.2 84.6 24 6.8 44.3
14:50 1023 30.21 852 25.16 28.8 83.8 23 6 42.8
14:55 1023 30.21 852 25.16 29 84.1 24 6.5 43.7
15:00 1023 30.21 852 25.16 29.2 84.6 22 5.9 42.7
15:05 1023 30.21 852 25.16 29.2 84.5 23 6.3 43.3
15:10 1023 30.21 852 25.16 29.4 84.8 22 6 42.9
15:15 1023 30.21 852 25.16 29.5 85 23 6.3 43.3
15:20 1023 30.21 852 25.16 29.9 85.9 22 6.3 43.3
15:25 1023 30.21 852 25.16 30.1 86.1 22 6.5 43.7
15:30 1023 30.21 852 25.16 29.4 85 23 6.2 43.1
15:35 1023 30.21 852 25.16 29.2 84.6 23 6.5 43.8
15:40 1023 30.21 852 25.16 29.1 84.4 23 6 42.9
15:45 1023 30.21 852 25.16 29.8 85.7 22 5.9 42.6
15:50 1023 30.21 852 25.16 29.8 85.7 21 5.7 42.3
15:55 1023 30.21 852 25.16 30.3 86.5 21 5.7 42.3
16:00 1023 30.21 852 25.16 30.4 86.6 19 4.3 39.8
16:05 1022 30.18 852 25.16 30.3 86.5 20 5.3 41.5
16:10 1022 30.18 852 25.16 30.2 86.3 21 5.6 42
16:15 1022 30.18 852 25.16 30.5 86.9 18 4 39.3
16:20 1022 30.18 852 25.16 30.2 86.3 20 4.9 40.8
16:25 1022 30.18 852 25.16 29.6 85.2 20 4.5 40
16:30 1022 30.18 852 25.16 29.1 84.3 20 4.5 40.1
16:35 1022 30.18 852 25.16 29.5 85.1 20 4.4 39.9
16:40 1022 30.18 852 25.16 29.2 84.5 20 4.2 39.5
16:45 1022 30.18 851 25.13 29.7 85.5 20 4.4 39.9
16:50 1022 30.18 851 25.13 29.9 85.9 19 3.8 38.9
16:55 1022 30.18 851 25.13 30 85.9 19 4.1 39.3
17:00 1022 30.18 851 25.13 29.6 85.2 17 2.5 36.5
17:05 1022 30.18 851 25.13 28.6 83.5 19 2.8 37
17:10 1022 30.18 851 25.13 28.5 83.3 19 3.2 37.8
17:15 1022 30.18 851 25.13 28.6 83.4 18 1.9 35.4
17:20 1022 30.18 851 25.13 28.7 83.6 18 2.1 35.7
17:25 1022 30.18 851 25.13 29 84.2 17 1.9 35.5
17:30 1022 30.18 851 25.13 29.4 85 16 1.3 34.3
17:35 1022 30.18 851 25.13 29.5 85.2 15 0.9 33.7
17:40 1022 30.18 851 25.13 29.2 84.6 17 2 35.5
17:45 1022 30.18 851 25.13 29.5 85.1 16 1.7 35.1
17:50 1022 30.18 851 25.13 29.7 85.5 15 1.1 34
17:55 1022 30.18 851 25.13 29.2 84.6 16 0.8 33.4
18:00 1022 30.18 851 25.13 28.9 83.9 18 2.2 35.9
18:05 1022 30.18 851 25.13 29.2 84.5 15 0.3 32.5
18:10 1022 30.18 851 25.13 29.3 84.7 16 0.9 33.6
18:15 1022 30.18 851 25.13 29.8 85.6 15 0.6 33.1
18:20 1022 30.18 851 25.13 29.7 85.4 15 0.5 33
18:25 1022 30.18 851 25.13 28.7 83.6 17 1.9 35.3
18:30 1022 30.18 851 25.13 28.2 82.7 15 -0.2 31.6
18:35 1022 30.18 851 25.13 28.2 82.8 17 1.4 34.5
18:40 1022 30.18 851 25.13 28.1 82.6 17 1.3 34.4
18:45 1022 30.18 851 25.13 28 82.3 15 -0.5 31
18:50 1022 30.18 851 25.13 27.9 82.3 17 0.8 33.4
18:55 1022 30.18 851 25.13 27.9 82.3 16 0.4 32.7
19:00 1022 30.18 851 25.13 27.9 82.3 17 0.7 33.2
19:05 1022 30.18 851 25.13 27.8 82 17 0.6 33.1
19:10 1022 30.18 851 25.13 27.7 81.8 18 1.2 34.1
19:15 1022 30.18 851 25.13 27.6 81.7 17 0.3 32.5
19:20 1022 30.18 851 25.13 27.6 81.6 18 1.1 33.9
19:25 1022 30.18 851 25.13 27.4 81.4 18 1.1 34
19:30 1022 30.18 851 25.13 27.3 81.2 20 2.4 36.4
19:35 1022 30.18 851 25.13 27.2 80.9 19 2.2 35.9
19:40 1022 30.18 851 25.13 27 80.6 22 3.6 38.4
19:45 1022 30.18 851 25.13 26.7 80.1 28 7.1 44.8
19:50 1022 30.18 851 25.13 26.2 79.1 32 8.6 47.5
19:55 1022 30.18 851 25.13 25.4 77.6 37 10 50.1
20:00 1022 30.18 851 25.13 24.5 76.1 36 8.6 47.5
20:05 1022 30.18 851 25.13 24.1 75.3 37 8.5 47.3
20:10 1022 30.18 851 25.13 23.6 74.4 36 7.9 46.2
20:15 1022 30.18 852 25.16 23 73.4 39 8.6 47.4
20:20 1022 30.18 852 25.16 22.7 72.8 41 9 48.2
20:25 1022 30.18 852 25.16 22 71.6 44 9.5 49.2
20:30 1023 30.21 852 25.16 21.1 70 49 10 50
20:35 1023 30.21 852 25.16 20.9 69.6 46 9 48.3
20:40 1023 30.21 852 25.16 21.1 70 39 6.9 44.5
20:45 1023 30.21 852 25.16 21.5 70.6 40 7.4 45.4
20:50 1023 30.21 852 25.16 21.7 71 43 8.6 47.5
20:55 1023 30.21 852 25.16 21.4 70.6 40 7.4 45.4
21:00 1023 30.21 852 25.16 21 69.7 42 7.6 45.6
21:05 1023 30.21 852 25.16 21 69.8 38 6.4 43.5
21:10 1023 30.21 852 25.16 21.2 70.2 37 6.1 43.1
21:15 1023 30.21 852 25.16 21 69.8 40 6.9 44.4
21:20 1023 30.21 852 25.16 20.3 68.6 41 6.9 44.5
21:25 1023 30.21 852 25.16 20 67.9 40 6.3 43.3
21:30 1023 30.21 852 25.16 19.5 67.1 42 6.4 43.6
21:35 1023 30.21 852 25.16 19.3 66.8 45 7.4 45.2
21:40 1023 30.21 852 25.16 19.3 66.7 43 6.6 43.9
21:45 1023 30.21 852 25.16 19.2 66.5 43 6.4 43.6
21:50 1023 30.21 852 25.16 19.1 66.3 44 6.7 44
21:55 1023 30.21 852 25.16 19.1 66.3 43 6.5 43.7
22:00 1023 30.21 852 25.16 19 66.2 45 6.9 44.4
22:05 1023 30.21 852 25.16 18.9 66.1 43 6.1 42.9
22:10 1023 30.21 852 25.16 18.8 65.9 43 6 42.8
22:15 1023 30.21 852 25.16 19 66.2 41 5.6 42.1
22:20 1023 30.21 852 25.16 19 66.3 39 4.9 40.8
22:25 1023 30.21 852 25.16 18.9 65.9 41 5.4 41.7
22:30 1023 30.21 852 25.16 18.9 66.1 39 4.8 40.6
22:35 1023 30.21 852 25.16 18.9 66 38 4.4 39.9
22:40 1023 30.21 852 25.16 18.7 65.7 42 5.7 42.2
22:45 1023 30.21 852 25.16 18.4 65.1 43 5.8 42.4
22:50 1023 30.21 852 25.16 18 64.4 45 6.1 43
22:55 1023 30.21 852 25.16 17.9 64.2 40 4.1 39.4
23:00 1023 30.21 852 25.16 18.5 65.4 40 4.8 40.6
23:05 1023 30.21 852 25.16 18.3 64.9 43 5.5 41.9
23:10 1023 30.21 852 25.16 18 64.4 42 5.2 41.3
23:15 1023 30.21 853 25.19 18.1 64.6 41 4.9 40.8
23:20 1023 30.21 853 25.19 18 64.5 41 4.9 40.8
23:25 1023 30.21 853 25.19 18 64.4 40 4.4 39.9
23:30 1023 30.21 852 25.16 18 64.4 39 3.8 38.9
23:35 1023 30.21 852 25.16 18.3 64.9 39 4.3 39.8
23:40 1023 30.21 853 25.19 18.1 64.6 42 5.1 41.1
23:45 1023 30.21 853 25.19 17.6 63.7 43 5.1 41.2
23:50 1023 30.21 852 25.16 17.2 63 45 5.3 41.5
23:55 1023 30.21 852 25.16 17 62.6 45 5 40.9
24:00 1023 30.21 852 25.16 17.1 62.8 41 3.8 38.9